Terminal Aerodrome Forecast
Issued by NWS

Home | Current Version | Previous Version | Text Only | Print | Product List | Glossary On
Versions: 1 2 3 4 5 6 7 8 9 10 11 12 13 14 15 16 17 18 19 20 21 22
000
FTUS42 KFFC 190300 AAB
TAFPDK
TAF AMD
KPDK 190331Z 1904/1924 03009G16KT 6SM -SHRA SCT020 OVC060
      TEMPO 1905/1907 BKN020 OVC060
     FM190700 04014G24KT 6SM -SHRA OVC009
     FM191200 03014G24KT 6SM -RA BKN018
     FM191900 04011G20KT P6SM BKN025=

USA.gov is the U.S. government's official web portal to all federal, state and local government web resources and services.